MV Alemania — V2OG7 — position and weather

sailwx.info

Track history (hours):
 
Tides and Currents Weather Stations Pressure Air Temp Water Temp Dewpoint Dewpoint Depression Visibility Wind Speed Wind Dir Waves Ship Positions

MV Alemania

Last reported at 2014-Sep-22 14:15 UTC. Time now 2014-Sep-22 16:19 UTC.
Position N 36°25' E 023°03'.

Length 133 m; draft 8 m.

Type: Cargo ship. MMSI: 304010613.

Date/timePositionNaut miles runAvg speedWind from/ knotsBaromVisibWave heightAir tempDewpointWater temp
2014-Sep-22 14:15N 36°25' E 023°03'6 9.1
2014-Sep-22 13:33N 36°24' E 023°11'10 9.0
2014-Sep-22 12:26N 36°31' E 023°19'910.3
2014-Sep-22 11:33N 36°39' E 023°25'1010.4
2014-Sep-22 10:33N 36°48' E 023°32'1010.0
2014-Sep-22 09:33N 36°57' E 023°38'10 9.8
2014-Sep-22 08:33N 37°07' E 023°39'2110.6
2014-Sep-22 06:33N 37°28' E 023°41'1313.2
2014-Sep-22 05:33N 37°41' E 023°41'1111.0
2014-Sep-22 04:33N 37°51' E 023°36'6 6.2
2014-Sep-22 03:33N 37°57' E 023°36'0 0.0
2014-Sep-22 02:31N 37°57' E 023°36'0 0.0
2014-Sep-22 01:33N 37°57' E 023°36'0 0.0
2014-Sep-22 00:33N 37°57' E 023°36'0 0.0
2014-Sep-21 23:33N 37°57' E 023°36'0 0.0
2014-Sep-21 22:32N 37°57' E 023°36'0 0.0
2014-Sep-21 21:32N 37°57' E 023°36'0 0.0
2014-Sep-21 20:31N 37°57' E 023°36'0 0.0
2014-Sep-21 19:31N 37°57' E 023°36'0 0.0
2014-Sep-21 18:33N 37°57' E 023°36'0 0.0
2014-Sep-21 17:33N 37°57' E 023°36'0 0.0
2014-Sep-21 16:33N 37°57' E 023°36'0 0.0
2014-Sep-21 15:32N 37°57' E 023°36'0 0.0
2014-Sep-21 14:32N 37°57' E 023°36'0 0.0
2014-Sep-21 13:31N 37°57' E 023°36'0 0.0
2014-Sep-21 12:31N 37°57' E 023°36'0 0.0
2014-Sep-21 11:33N 37°57' E 023°36'0 0.0
2014-Sep-21 10:33N 37°57' E 023°36'0 0.0
2014-Sep-21 09:33N 37°57' E 023°36'0 0.0
2014-Sep-21 08:33N 37°57' E 023°36'0 0.0
2014-Sep-21 07:32N 37°57' E 023°36'0 0.0
2014-Sep-21 06:32N 37°57' E 023°36'0 0.0
2014-Sep-21 05:31N 37°57' E 023°36'0 0.0
2014-Sep-21 04:33N 37°57' E 023°36'4 3.9
2014-Sep-21 03:33N 37°54' E 023°35'3 3.2
2014-Sep-21 02:31N 37°51' E 023°32'0 0.1
2014-Sep-21 01:33N 37°51' E 023°32'0 0.0
2014-Sep-21 00:33N 37°51' E 023°32'0 0.1
2014-Sep-20 23:33N 37°51' E 023°32'0 0.0
2014-Sep-20 22:33N 37°51' E 023°32'0 0.0
2014-Sep-20 21:32N 37°51' E 023°32'0 0.0
2014-Sep-20 20:32N 37°51' E 023°32'0 0.0
2014-Sep-20 19:31N 37°51' E 023°32'0 0.0
2014-Sep-20 18:33N 37°51' E 023°32'0 0.0
2014-Sep-20 17:33N 37°51' E 023°32'0 0.0
2014-Sep-20 16:33N 37°51' E 023°32'0 0.0
2014-Sep-20 15:32N 37°51' E 023°32'0 0.0
2014-Sep-20 14:32N 37°51' E 023°32'0 0.0
2014-Sep-20 13:31N 37°51' E 023°32'0 0.0
2014-Sep-20 12:31N 37°51' E 023°32'0 0.0
2014-Sep-20 11:33N 37°51' E 023°32'0 0.0
2014-Sep-20 10:33N 37°51' E 023°32'0 0.0
2014-Sep-20 09:33N 37°51' E 023°32'0 0.1
2014-Sep-20 08:32N 37°51' E 023°32'0 0.0
2014-Sep-20 07:32N 37°51' E 023°32'0 0.0
2014-Sep-20 06:31N 37°51' E 023°32'0 0.0
2014-Sep-20 05:31N 37°51' E 023°32'0 0.0
2014-Sep-20 04:33N 37°51' E 023°32'0 0.0
2014-Sep-20 03:33N 37°51' E 023°32'0 0.0
2014-Sep-20 02:33N 37°51' E 023°32'0 0.0
2014-Sep-20 01:32N 37°51' E 023°32'0 0.0
2014-Sep-20 00:32N 37°51' E 023°32'0 0.0
2014-Sep-19 23:31N 37°51' E 023°32'0 0.0
2014-Sep-19 22:31N 37°51' E 023°32'0 0.0
2014-Sep-19 21:33N 37°51' E 023°32'0 0.0
2014-Sep-19 20:33N 37°51' E 023°32'0 0.0
2014-Sep-19 19:32N 37°51' E 023°32'0 0.0
2014-Sep-19 18:32N 37°51' E 023°32'0 0.0
2014-Sep-19 17:32N 37°51' E 023°32'0 0.0
2014-Sep-19 16:31N 37°51' E 023°32'0 0.0
2014-Sep-19 15:31N 37°51' E 023°32'0 0.0
2014-Sep-19 14:33N 37°51' E 023°32'0 0.0
2014-Sep-19 13:30N 37°51' E 023°32'0 0.1
2014-Sep-19 12:32N 37°51' E 023°32'0 0.0
2014-Sep-19 11:32N 37°51' E 023°32'0 0.1
2014-Sep-19 10:32N 37°51' E 023°32'0 0.1
2014-Sep-19 09:31N 37°51' E 023°32'0 0.0
2014-Sep-19 08:31N 37°51' E 023°32'0 0.0
2014-Sep-19 07:33N 37°51' E 023°32'0 0.0
2014-Sep-19 06:31N 37°51' E 023°32'0 0.0
2014-Sep-19 05:33N 37°51' E 023°32'0 0.0
2014-Sep-19 04:33N 37°51' E 023°32'0 0.0
2014-Sep-19 03:33N 37°51' E 023°32'0 0.0
2014-Sep-19 02:32N 37°51' E 023°32'0 0.0
2014-Sep-19 01:32N 37°51' E 023°32'0 0.0
2014-Sep-19 00:31N 37°51' E 023°32'0 0.0
2014-Sep-18 23:31N 37°51' E 023°32'0 0.0
2014-Sep-18 22:33N 37°51' E 023°32'0 0.0
2014-Sep-18 21:33N 37°51' E 023°32'0 0.0
2014-Sep-18 20:33N 37°51' E 023°32'0 0.0
2014-Sep-18 19:29N 37°51' E 023°32'0 0.0
2014-Sep-18 18:32N 37°51' E 023°32'0 0.0
2014-Sep-18 17:31N 37°51' E 023°32'0 0.0
2014-Sep-18 16:31N 37°51' E 023°32'0 0.0
2014-Sep-18 15:33N 37°51' E 023°32'0 0.0
2014-Sep-18 14:33N 37°51' E 023°32'0 0.2
2014-Sep-18 13:33N 37°51' E 023°32'0 0.1
2014-Sep-18 12:32N 37°51' E 023°32'0 0.0
2014-Sep-18 11:32N 37°51' E 023°32'0 0.1
2014-Sep-18 10:31N 37°51' E 023°32'0 0.0
2014-Sep-18 09:31N 37°51' E 023°32'0 0.0
2014-Sep-18 08:33N 37°51' E 023°32'0 0.0
2014-Sep-18 07:33N 37°51' E 023°32'0 0.0
2014-Sep-18 06:33N 37°51' E 023°32'0 0.0
2014-Sep-18 05:32N 37°51' E 023°32'0 0.0
2014-Sep-18 04:29N 37°51' E 023°32'0 0.0
2014-Sep-18 03:31N 37°51' E 023°32'0 0.0
2014-Sep-18 02:31N 37°51' E 023°32'0 0.0
2014-Sep-18 01:33N 37°51' E 023°32'0 0.0
2014-Sep-18 00:33N 37°51' E 023°32'0 0.0
2014-Sep-17 23:32N 37°51' E 023°32'0 0.0
2014-Sep-17 22:32N 37°51' E 023°32'0 0.0
2014-Sep-17 21:32N 37°51' E 023°32'0 0.1
2014-Sep-17 20:31N 37°51' E 023°32'0 0.0
2014-Sep-17 19:31N 37°51' E 023°32'0 0.0
2014-Sep-17 18:30N 37°51' E 023°32'0 0.0
2014-Sep-17 17:33N 37°51' E 023°32'0 0.0
2014-Sep-17 16:32N 37°51' E 023°32'0 0.1
2014-Sep-17 15:32N 37°51' E 023°32'0 0.0
2014-Sep-17 14:32N 37°51' E 023°32'0 0.0
2014-Sep-17 13:31N 37°51' E 023°32'0 0.0
2014-Sep-17 12:28N 37°51' E 023°32'0 0.1
2014-Sep-17 11:33N 37°51' E 023°32'0 0.0
2014-Sep-17 10:33N 37°51' E 023°32'0 0.0
2014-Sep-17 09:32N 37°51' E 023°32'0 0.1
2014-Sep-17 08:32N 37°51' E 023°32'0 0.0
2014-Sep-17 07:32N 37°51' E 023°32'0 0.0
2014-Sep-17 06:31N 37°51' E 023°32'0 0.0
2014-Sep-17 05:31N 37°51' E 023°32'0 0.0
2014-Sep-17 04:33N 37°51' E 023°32'0 0.0
2014-Sep-17 03:33N 37°51' E 023°32'0 0.0
2014-Sep-17 02:33N 37°51' E 023°32'0 0.0
2014-Sep-17 01:34N 37°51' E 023°32'0 0.0
2014-Sep-17 00:34N 37°51' E 023°32'0 0.0
2014-Sep-16 23:34N 37°51' E 023°32'0 0.0
2014-Sep-16 22:33N 37°51' E 023°32'0 0.0
2014-Sep-16 21:33N 37°51' E 023°32'0 0.0
2014-Sep-16 20:33N 37°51' E 023°32'0 0.1
2014-Sep-16 19:33N 37°51' E 023°32'0 0.0
2014-Sep-16 18:33N 37°51' E 023°32'0 0.0
2014-Sep-16 17:33N 37°51' E 023°32'0 0.0
2014-Sep-16 16:34N 37°51' E 023°32'0 0.0
2014-Sep-16 15:33N 37°51' E 023°32'0 0.0
2014-Sep-16 14:33N 37°51' E 023°32'0 0.0
2014-Sep-16 13:34N 37°51' E 023°32'0 0.2
2014-Sep-16 12:33N 37°51' E 023°32'0 0.0
2014-Sep-16 11:33N 37°51' E 023°32'0 0.0
2014-Sep-16 10:33N 37°51' E 023°32'0 0.0
2014-Sep-16 09:33N 37°51' E 023°32'1 1.3
2014-Sep-16 08:33N 37°51' E 023°34'10 9.9
2014-Sep-16 07:34N 37°45' E 023°43'1310.9
2014-Sep-16 06:21N 37°32' E 023°47'42910.3
2014-Sep-14 12:33N 36°20' E 014°58'1211.5
2014-Sep-14 11:33N 36°19' E 014°44'1111.2
2014-Sep-14 10:33N 36°20' E 014°30'1111.2
2014-Sep-14 09:34N 36°19' E 014°16'1111.2
2014-Sep-14 08:33N 36°20' E 014°02'1111.6
2014-Sep-14 07:34N 36°24' E 013°48'1211.7
2014-Sep-14 06:34N 36°28' E 013°35'1211.7
2014-Sep-14 05:34N 36°33' E 013°22'1111.3
2014-Sep-14 04:34N 36°37' E 013°08'1111.3
2014-Sep-14 03:34N 36°41' E 012°55'1111.4
2014-Sep-14 02:33N 36°46' E 012°42'37711.4
2014-Sep-12 17:25N 37°10' E 004°52'2312.0
2014-Sep-12 15:32N 37°08' E 004°24'  
Track history (hours):
 
Tides and Currents Weather Stations Pressure Air Temp Water Temp Dewpoint Dewpoint Depression Visibility Wind Speed Wind Dir Waves Ship Positions

MV Alemania

Last reported at 2014-Sep-22 14:15 UTC. Time now 2014-Sep-22 16:19 UTC.
Position N 36°25' E 023°03'.

Length 133 m; draft 8 m.

Type: Cargo ship. MMSI: 304010613.

Date/timePositionNaut miles runAvg speedWind from/ knotsBaromVisibWave heightAir tempDewpointWater temp
2014-Sep-22 14:15N 36°25' E 023°03'6 9.1
2014-Sep-22 13:33N 36°24' E 023°11'10 9.0
2014-Sep-22 12:26N 36°31' E 023°19'910.3
2014-Sep-22 11:33N 36°39' E 023°25'1010.4
2014-Sep-22 10:33N 36°48' E 023°32'1010.0
2014-Sep-22 09:33N 36°57' E 023°38'10 9.8
2014-Sep-22 08:33N 37°07' E 023°39'2110.6
2014-Sep-22 06:33N 37°28' E 023°41'1313.2
2014-Sep-22 05:33N 37°41' E 023°41'1111.0
2014-Sep-22 04:33N 37°51' E 023°36'6 6.2
2014-Sep-22 03:33N 37°57' E 023°36'0 0.0
2014-Sep-22 02:31N 37°57' E 023°36'0 0.0
2014-Sep-22 01:33N 37°57' E 023°36'0 0.0
2014-Sep-22 00:33N 37°57' E 023°36'0 0.0
2014-Sep-21 23:33N 37°57' E 023°36'0 0.0
2014-Sep-21 22:32N 37°57' E 023°36'0 0.0
2014-Sep-21 21:32N 37°57' E 023°36'0 0.0
2014-Sep-21 20:31N 37°57' E 023°36'0 0.0
2014-Sep-21 19:31N 37°57' E 023°36'0 0.0
2014-Sep-21 18:33N 37°57' E 023°36'0 0.0
2014-Sep-21 17:33N 37°57' E 023°36'0 0.0
2014-Sep-21 16:33N 37°57' E 023°36'0 0.0
2014-Sep-21 15:32N 37°57' E 023°36'0 0.0
2014-Sep-21 14:32N 37°57' E 023°36'0 0.0
2014-Sep-21 13:31N 37°57' E 023°36'0 0.0
2014-Sep-21 12:31N 37°57' E 023°36'0 0.0
2014-Sep-21 11:33N 37°57' E 023°36'0 0.0
2014-Sep-21 10:33N 37°57' E 023°36'0 0.0
2014-Sep-21 09:33N 37°57' E 023°36'0 0.0
2014-Sep-21 08:33N 37°57' E 023°36'0 0.0
2014-Sep-21 07:32N 37°57' E 023°36'0 0.0
2014-Sep-21 06:32N 37°57' E 023°36'0 0.0
2014-Sep-21 05:31N 37°57' E 023°36'0 0.0
2014-Sep-21 04:33N 37°57' E 023°36'4 3.9
2014-Sep-21 03:33N 37°54' E 023°35'3 3.2
2014-Sep-21 02:31N 37°51' E 023°32'0 0.1
2014-Sep-21 01:33N 37°51' E 023°32'0 0.0
2014-Sep-21 00:33N 37°51' E 023°32'0 0.1
2014-Sep-20 23:33N 37°51' E 023°32'0 0.0
2014-Sep-20 22:33N 37°51' E 023°32'0 0.0
2014-Sep-20 21:32N 37°51' E 023°32'0 0.0
2014-Sep-20 20:32N 37°51' E 023°32'0 0.0
2014-Sep-20 19:31N 37°51' E 023°32'0 0.0
2014-Sep-20 18:33N 37°51' E 023°32'0 0.0
2014-Sep-20 17:33N 37°51' E 023°32'0 0.0
2014-Sep-20 16:33N 37°51' E 023°32'0 0.0
2014-Sep-20 15:32N 37°51' E 023°32'0 0.0
2014-Sep-20 14:32N 37°51' E 023°32'0 0.0
2014-Sep-20 13:31N 37°51' E 023°32'0 0.0
2014-Sep-20 12:31N 37°51' E 023°32'0 0.0
2014-Sep-20 11:33N 37°51' E 023°32'0 0.0
2014-Sep-20 10:33N 37°51' E 023°32'0 0.0
2014-Sep-20 09:33N 37°51' E 023°32'0 0.1
2014-Sep-20 08:32N 37°51' E 023°32'0 0.0
2014-Sep-20 07:32N 37°51' E 023°32'0 0.0
2014-Sep-20 06:31N 37°51' E 023°32'0 0.0
2014-Sep-20 05:31N 37°51' E 023°32'0 0.0
2014-Sep-20 04:33N 37°51' E 023°32'0 0.0
2014-Sep-20 03:33N 37°51' E 023°32'0 0.0
2014-Sep-20 02:33N 37°51' E 023°32'0 0.0
2014-Sep-20 01:32N 37°51' E 023°32'0 0.0
2014-Sep-20 00:32N 37°51' E 023°32'0 0.0
2014-Sep-19 23:31N 37°51' E 023°32'0 0.0
2014-Sep-19 22:31N 37°51' E 023°32'0 0.0
2014-Sep-19 21:33N 37°51' E 023°32'0 0.0
2014-Sep-19 20:33N 37°51' E 023°32'0 0.0
2014-Sep-19 19:32N 37°51' E 023°32'0 0.0
2014-Sep-19 18:32N 37°51' E 023°32'0 0.0
2014-Sep-19 17:32N 37°51' E 023°32'0 0.0
2014-Sep-19 16:31N 37°51' E 023°32'0 0.0
2014-Sep-19 15:31N 37°51' E 023°32'0 0.0
2014-Sep-19 14:33N 37°51' E 023°32'0 0.0
2014-Sep-19 13:30N 37°51' E 023°32'0 0.1
2014-Sep-19 12:32N 37°51' E 023°32'0 0.0
2014-Sep-19 11:32N 37°51' E 023°32'0 0.1
2014-Sep-19 10:32N 37°51' E 023°32'0 0.1
2014-Sep-19 09:31N 37°51' E 023°32'0 0.0
2014-Sep-19 08:31N 37°51' E 023°32'0 0.0
2014-Sep-19 07:33N 37°51' E 023°32'0 0.0
2014-Sep-19 06:31N 37°51' E 023°32'0 0.0
2014-Sep-19 05:33N 37°51' E 023°32'0 0.0
2014-Sep-19 04:33N 37°51' E 023°32'0 0.0
2014-Sep-19 03:33N 37°51' E 023°32'0 0.0
2014-Sep-19 02:32N 37°51' E 023°32'0 0.0
2014-Sep-19 01:32N 37°51' E 023°32'0 0.0
2014-Sep-19 00:31N 37°51' E 023°32'0 0.0
2014-Sep-18 23:31N 37°51' E 023°32'0 0.0
2014-Sep-18 22:33N 37°51' E 023°32'0 0.0
2014-Sep-18 21:33N 37°51' E 023°32'0 0.0
2014-Sep-18 20:33N 37°51' E 023°32'0 0.0
2014-Sep-18 19:29N 37°51' E 023°32'0 0.0
2014-Sep-18 18:32N 37°51' E 023°32'0 0.0
2014-Sep-18 17:31N 37°51' E 023°32'0 0.0
2014-Sep-18 16:31N 37°51' E 023°32'0 0.0
2014-Sep-18 15:33N 37°51' E 023°32'0 0.0
2014-Sep-18 14:33N 37°51' E 023°32'0 0.2
2014-Sep-18 13:33N 37°51' E 023°32'0 0.1
2014-Sep-18 12:32N 37°51' E 023°32'0 0.0
2014-Sep-18 11:32N 37°51' E 023°32'0 0.1
2014-Sep-18 10:31N 37°51' E 023°32'0 0.0
2014-Sep-18 09:31N 37°51' E 023°32'0 0.0
2014-Sep-18 08:33N 37°51' E 023°32'0 0.0
2014-Sep-18 07:33N 37°51' E 023°32'0 0.0
2014-Sep-18 06:33N 37°51' E 023°32'0 0.0
2014-Sep-18 05:32N 37°51' E 023°32'0 0.0
2014-Sep-18 04:29N 37°51' E 023°32'0 0.0
2014-Sep-18 03:31N 37°51' E 023°32'0 0.0
2014-Sep-18 02:31N 37°51' E 023°32'0 0.0
2014-Sep-18 01:33N 37°51' E 023°32'0 0.0
2014-Sep-18 00:33N 37°51' E 023°32'0 0.0
2014-Sep-17 23:32N 37°51' E 023°32'0 0.0
2014-Sep-17 22:32N 37°51' E 023°32'0 0.0
2014-Sep-17 21:32N 37°51' E 023°32'0 0.1
2014-Sep-17 20:31N 37°51' E 023°32'0 0.0
2014-Sep-17 19:31N 37°51' E 023°32'0 0.0
2014-Sep-17 18:30N 37°51' E 023°32'0 0.0
2014-Sep-17 17:33N 37°51' E 023°32'0 0.0
2014-Sep-17 16:32N 37°51' E 023°32'0 0.1
2014-Sep-17 15:32N 37°51' E 023°32'0 0.0
2014-Sep-17 14:32N 37°51' E 023°32'0 0.0
2014-Sep-17 13:31N 37°51' E 023°32'0 0.0
2014-Sep-17 12:28N 37°51' E 023°32'0 0.1
2014-Sep-17 11:33N 37°51' E 023°32'0 0.0
2014-Sep-17 10:33N 37°51' E 023°32'0 0.0
2014-Sep-17 09:32N 37°51' E 023°32'0 0.1
2014-Sep-17 08:32N 37°51' E 023°32'0 0.0
2014-Sep-17 07:32N 37°51' E 023°32'0 0.0
2014-Sep-17 06:31N 37°51' E 023°32'0 0.0
2014-Sep-17 05:31N 37°51' E 023°32'0 0.0
2014-Sep-17 04:33N 37°51' E 023°32'0 0.0
2014-Sep-17 03:33N 37°51' E 023°32'0 0.0
2014-Sep-17 02:33N 37°51' E 023°32'0 0.0
2014-Sep-17 01:34N 37°51' E 023°32'0 0.0
2014-Sep-17 00:34N 37°51' E 023°32'0 0.0
2014-Sep-16 23:34N 37°51' E 023°32'0 0.0
2014-Sep-16 22:33N 37°51' E 023°32'0 0.0
2014-Sep-16 21:33N 37°51' E 023°32'0 0.0
2014-Sep-16 20:33N 37°51' E 023°32'0 0.1
2014-Sep-16 19:33N 37°51' E 023°32'0 0.0
2014-Sep-16 18:33N 37°51' E 023°32'0 0.0
2014-Sep-16 17:33N 37°51' E 023°32'0 0.0
2014-Sep-16 16:34N 37°51' E 023°32'0 0.0
2014-Sep-16 15:33N 37°51' E 023°32'0 0.0
2014-Sep-16 14:33N 37°51' E 023°32'0 0.0
2014-Sep-16 13:34N 37°51' E 023°32'0 0.2
2014-Sep-16 12:33N 37°51' E 023°32'0 0.0
2014-Sep-16 11:33N 37°51' E 023°32'0 0.0
2014-Sep-16 10:33N 37°51' E 023°32'0 0.0
2014-Sep-16 09:33N 37°51' E 023°32'1 1.3
2014-Sep-16 08:33N 37°51' E 023°34'10 9.9
2014-Sep-16 07:34N 37°45' E 023°43'1310.9
2014-Sep-16 06:21N 37°32' E 023°47'42910.3
2014-Sep-14 12:33N 36°20' E 014°58'1211.5
2014-Sep-14 11:33N 36°19' E 014°44'1111.2
2014-Sep-14 10:33N 36°20' E 014°30'1111.2
2014-Sep-14 09:34N 36°19' E 014°16'1111.2
2014-Sep-14 08:33N 36°20' E 014°02'1111.6
2014-Sep-14 07:34N 36°24' E 013°48'1211.7
2014-Sep-14 06:34N 36°28' E 013°35'1211.7
2014-Sep-14 05:34N 36°33' E 013°22'1111.3
2014-Sep-14 04:34N 36°37' E 013°08'1111.3
2014-Sep-14 03:34N 36°41' E 012°55'1111.4
2014-Sep-14 02:33N 36°46' E 012°42'37711.4
2014-Sep-12 17:25N 37°10' E 004°52'2312.0
2014-Sep-12 15:32N 37°08' E 004°24'  

Dump ship's entire track history